createdAt,value
2022-11-02T00:00:22.410Z,10.18
2022-11-02T00:02:48.781Z,9.35
2022-11-02T00:05:15.367Z,12.30
2022-11-02T00:07:41.893Z,13.18
2022-11-02T00:10:09.049Z,8.10
2022-11-02T00:12:35.475Z,14.40
2022-11-02T00:15:01.808Z,10.93
2022-11-02T00:17:28.673Z,7.97
2022-11-02T00:19:55.112Z,14.23
2022-11-02T00:22:21.357Z,10.68
2022-11-02T00:24:47.677Z,14.02
2022-11-02T00:27:13.918Z,8.93
2022-11-02T00:29:40.164Z,8.70
2022-11-02T00:32:06.412Z,11.18
2022-11-02T00:34:32.646Z,9.32
2022-11-02T00:36:58.916Z,7.55
2022-11-02T00:39:25.158Z,11.73
2022-11-02T00:41:51.403Z,12.35
2022-11-02T00:44:17.677Z,16.92
2022-11-02T00:46:43.926Z,12.40
2022-11-02T00:49:10.162Z,16.15
2022-11-02T00:51:36.565Z,23.17
2022-11-02T00:54:02.816Z,8.88
2022-11-02T00:56:29.051Z,11.30
2022-11-02T00:58:55.330Z,14.45
2022-11-02T01:01:21.682Z,13.52
2022-11-02T01:03:48.018Z,13.02
2022-11-02T01:06:15.604Z,18.85
2022-11-02T01:08:42.118Z,9.25
2022-11-02T01:11:13.281Z,12.48
2022-11-02T01:13:39.497Z,14.60
2022-11-02T01:16:05.882Z,8.75
2022-11-02T01:18:32.258Z,13.40
2022-11-02T01:20:59.223Z,16.73
2022-11-02T01:25:52.062Z,12.93
2022-11-02T01:28:18.507Z,16.73
2022-11-02T01:30:47.222Z,15.50
2022-11-02T01:33:13.484Z,13.60
2022-11-02T01:35:40.091Z,10.25
2022-11-02T01:38:06.542Z,13.95
2022-11-02T01:40:36.847Z,17.63
2022-11-02T01:43:19.561Z,13.57
2022-11-02T01:45:46.560Z,20.88
2022-11-02T01:50:39.107Z,12.73
2022-11-02T01:53:05.451Z,8.38
2022-11-02T01:55:32.701Z,13.18
2022-11-02T01:58:01.512Z,12.60
2022-11-02T02:00:27.965Z,11.23
2022-11-02T02:03:09.450Z,10.50
2022-11-02T02:05:39.766Z,11.65
2022-11-02T02:08:08.177Z,12.57
2022-11-02T02:10:35.500Z,7.97
2022-11-02T02:13:02.796Z,15.77
2022-11-02T02:15:36.185Z,11.15
2022-11-02T02:18:07.708Z,12.48
2022-11-02T02:20:49.155Z,18.42
2022-11-02T02:23:31.215Z,15.70
2022-11-02T02:25:57.493Z,11.07
2022-11-02T02:28:37.799Z,10.35
2022-11-02T02:31:10.811Z,12.77
2022-11-02T02:33:46.364Z,10.73
2022-11-02T02:36:16.066Z,22.35
2022-11-02T02:38:47.731Z,12.18
2022-11-02T02:41:34.700Z,12.07
2022-11-02T02:44:01.947Z,13.73
2022-11-02T02:46:42.624Z,16.50
2022-11-02T02:49:11.130Z,14.38
2022-11-02T02:51:38.346Z,13.88
2022-11-02T02:54:06.901Z,11.20
2022-11-02T02:56:37.695Z,14.20
2022-11-02T02:59:06.227Z,10.10
2022-11-02T03:01:33.706Z,12.38
2022-11-02T03:04:00.034Z,14.02
2022-11-02T03:06:28.667Z,8.32
2022-11-02T03:09:13.929Z,16.27
2022-11-02T03:11:51.684Z,12.75
2022-11-02T03:14:33.069Z,13.13
2022-11-02T03:17:05.923Z,11.27
2022-11-02T03:19:50.902Z,11.70
2022-11-02T03:22:22.510Z,16.50
2022-11-02T03:24:57.644Z,14.30
2022-11-02T03:27:39.584Z,17.48
2022-11-02T03:30:13.258Z,12.93
2022-11-02T03:32:39.547Z,13.20
2022-11-02T03:35:11.185Z,11.65
2022-11-02T03:38:04.163Z,13.07
2022-11-02T03:40:37.660Z,13.68
2022-11-02T03:43:05.207Z,12.32
2022-11-02T03:45:34.919Z,8.82
2022-11-02T03:48:04.339Z,9.05
2022-11-02T03:50:32.599Z,10.93
2022-11-02T03:53:05.267Z,12.52
2022-11-02T03:55:33.907Z,13.27
2022-11-02T03:58:00.380Z,12.98
2022-11-02T04:00:28.355Z,14.02
2022-11-02T04:02:56.545Z,8.50
2022-11-02T04:05:29.641Z,15.43
2022-11-02T04:08:14.881Z,13.50
2022-11-02T04:11:01.914Z,16.77
2022-11-02T04:13:46.992Z,14.20
2022-11-02T04:16:13.829Z,10.75
2022-11-02T04:18:58.399Z,11.57
2022-11-02T04:21:24.680Z,11.57
2022-11-02T04:24:09.825Z,15.75
2022-11-02T04:26:36.226Z,11.77
2022-11-02T04:29:02.869Z,9.02
2022-11-02T04:31:29.220Z,9.50
2022-11-02T04:33:55.571Z,13.60
2022-11-02T04:36:21.817Z,11.77
2022-11-02T04:38:48.231Z,9.00
2022-11-02T04:41:34.286Z,14.55
2022-11-02T04:44:00.849Z,12.80
2022-11-02T04:46:29.134Z,11.30
2022-11-02T04:48:56.076Z,13.23
2022-11-02T04:53:48.827Z,13.70
2022-11-02T04:56:15.214Z,13.48
2022-11-02T04:58:41.567Z,17.02
2022-11-02T05:01:08.794Z,9.93
2022-11-02T05:03:35.799Z,14.05
2022-11-02T05:08:28.429Z,12.55
2022-11-02T05:10:58.435Z,10.85
2022-11-02T05:13:25.751Z,9.07
2022-11-02T05:15:55.166Z,12.75
2022-11-02T05:20:53.639Z,14.32
2022-11-02T05:23:20.254Z,8.45
2022-11-02T05:26:15.846Z,12.07
2022-11-02T05:28:42.149Z,8.70
2022-11-02T05:31:08.415Z,21.45
2022-11-02T05:33:34.986Z,31.00
2022-11-02T05:36:01.414Z,14.43
2022-11-02T05:38:27.857Z,9.43
2022-11-02T05:40:55.007Z,11.85
2022-11-02T05:43:21.339Z,14.57
2022-11-02T05:45:54.687Z,9.18
2022-11-02T05:48:21.303Z,9.95
2022-11-02T05:50:47.649Z,11.80
2022-11-02T05:53:13.867Z,9.77
2022-11-02T05:55:40.111Z,18.42
2022-11-02T05:58:06.377Z,13.02
2022-11-02T06:00:32.774Z,13.95
2022-11-02T06:02:59.016Z,13.98
2022-11-02T06:05:25.754Z,16.25
2022-11-02T06:07:52.075Z,15.50
2022-11-02T06:10:18.667Z,18.13
2022-11-02T06:12:44.928Z,10.88
2022-11-02T06:15:11.349Z,7.60
2022-11-02T06:17:38.247Z,7.35
2022-11-02T06:20:04.698Z,13.82
2022-11-02T06:22:30.969Z,13.55
2022-11-02T06:24:57.231Z,14.98
2022-11-02T06:27:23.467Z,8.18
2022-11-02T06:29:49.708Z,11.35
2022-11-02T06:32:15.943Z,8.82
2022-11-02T06:34:42.196Z,11.65
2022-11-02T06:37:08.402Z,22.15
2022-11-02T06:39:34.661Z,13.32
2022-11-02T06:42:00.993Z,12.82
2022-11-02T06:44:27.260Z,12.23
2022-11-02T06:46:53.519Z,10.27
2022-11-02T06:49:19.855Z,15.60
2022-11-02T06:51:46.089Z,15.30
2022-11-02T06:54:12.357Z,7.82
2022-11-02T06:56:38.585Z,17.35
2022-11-02T06:59:04.807Z,14.27
2022-11-02T07:01:31.195Z,11.05
2022-11-02T07:03:57.604Z,16.05
2022-11-02T07:06:23.871Z,21.52
2022-11-02T07:08:50.126Z,16.85
2022-11-02T07:11:16.468Z,9.30
2022-11-02T07:13:43.034Z,13.88
2022-11-02T07:16:09.357Z,12.55
2022-11-02T07:18:35.709Z,10.65
2022-11-02T07:21:02.491Z,12.57
2022-11-02T07:23:28.827Z,9.77
2022-11-02T07:25:55.085Z,10.98
2022-11-02T07:28:21.349Z,14.32
2022-11-02T07:30:47.648Z,11.77
2022-11-02T07:33:13.874Z,16.90
2022-11-02T07:35:41.098Z,14.70
2022-11-02T07:38:07.553Z,11.10
2022-11-02T07:40:35.341Z,11.23
2022-11-02T07:43:02.144Z,13.10
2022-11-02T07:47:55.530Z,10.15
2022-11-02T07:50:22.853Z,23.17
2022-11-02T07:52:50.553Z,9.30
2022-11-02T07:55:17.699Z,13.75
2022-11-02T07:57:44.015Z,17.30
2022-11-02T08:00:11.719Z,12.85
2022-11-02T08:02:38.252Z,12.02
2022-11-02T08:05:04.927Z,12.02
2022-11-02T08:07:31.151Z,12.45
2022-11-02T08:09:57.406Z,10.48
2022-11-02T08:12:23.639Z,9.45
2022-11-02T08:14:49.914Z,11.93
2022-11-02T08:17:16.136Z,14.90
2022-11-02T08:19:42.375Z,16.95
2022-11-02T08:22:08.634Z,11.77
2022-11-02T08:24:35.013Z,11.05
2022-11-02T08:27:01.267Z,10.55
2022-11-02T08:29:27.496Z,10.32
2022-11-02T08:31:53.734Z,19.67
2022-11-02T08:34:19.963Z,9.48
2022-11-02T08:36:46.197Z,9.40
2022-11-02T08:39:18.459Z,10.77
2022-11-02T08:41:45.338Z,13.98
2022-11-02T08:44:11.590Z,13.73
2022-11-02T08:46:37.810Z,14.77
2022-11-02T08:49:04.052Z,9.38
2022-11-02T08:51:30.298Z,15.07
2022-11-02T08:53:56.537Z,11.73
2022-11-02T08:56:22.774Z,13.10
2022-11-02T08:58:49.021Z,16.00
2022-11-02T09:01:15.348Z,8.93
2022-11-02T09:03:41.624Z,9.65
2022-11-02T09:06:07.949Z,13.05
2022-11-02T09:08:34.229Z,14.45
2022-11-02T09:11:01.667Z,14.48
2022-11-02T09:13:28.347Z,14.25
2022-11-02T09:15:55.851Z,9.35
2022-11-02T09:18:22.185Z,17.13
2022-11-02T09:20:48.930Z,14.32
2022-11-02T09:23:18.799Z,16.63
2022-11-02T09:25:45.081Z,15.43
2022-11-02T09:28:11.554Z,13.90
2022-11-02T09:30:37.934Z,20.23
2022-11-02T09:33:05.616Z,12.40
2022-11-02T09:35:33.194Z,17.73
2022-11-02T09:37:59.693Z,18.90
2022-11-02T09:40:31.002Z,12.13
2022-11-02T09:43:15.620Z,15.07
2022-11-02T09:45:47.968Z,10.10
2022-11-02T09:48:23.485Z,14.95
2022-11-02T09:51:06.930Z,14.35
2022-11-02T09:53:48.880Z,14.32
2022-11-02T09:56:16.272Z,14.13
2022-11-02T09:58:43.011Z,14.82
2022-11-02T10:01:15.970Z,12.10
2022-11-02T10:03:42.210Z,8.90
2022-11-02T10:06:14.134Z,12.23
2022-11-02T10:08:40.487Z,11.27
2022-11-02T10:11:25.301Z,16.50
2022-11-02T10:13:54.164Z,19.83
2022-11-02T10:16:30.420Z,19.63
2022-11-02T10:18:56.654Z,18.70
2022-11-02T10:21:32.489Z,14.18
2022-11-02T10:24:00.347Z,17.70
2022-11-02T10:26:32.547Z,9.43
2022-11-02T10:29:01.644Z,17.25
2022-11-02T10:31:32.552Z,11.07
2022-11-02T10:34:00.746Z,17.13
2022-11-02T10:36:39.215Z,18.83
2022-11-02T10:39:25.747Z,17.85
2022-11-02T10:42:06.162Z,12.88
2022-11-02T10:44:49.129Z,9.95
2022-11-02T10:47:17.627Z,9.95
2022-11-02T10:49:56.873Z,15.98
2022-11-02T10:52:23.297Z,10.25
2022-11-02T10:54:50.254Z,13.43
2022-11-02T10:57:20.079Z,9.57
2022-11-02T11:00:07.134Z,10.63
2022-11-02T11:02:33.374Z,8.87
2022-11-02T11:05:11.710Z,10.90
2022-11-02T11:07:37.967Z,9.38
2022-11-02T11:10:04.721Z,8.98
2022-11-02T11:20:31.003Z,8.38
2022-11-02T11:23:10.009Z,7.20
2022-11-02T11:25:36.233Z,12.15
2022-11-02T11:28:02.854Z,13.52
2022-11-02T11:33:20.923Z,9.48
2022-11-02T11:35:48.691Z,15.40
2022-11-02T11:38:17.118Z,9.02
2022-11-02T11:40:44.807Z,9.32
2022-11-02T11:43:14.378Z,9.63
2022-11-02T11:45:52.997Z,6.72
2022-11-02T11:48:27.078Z,8.52
2022-11-02T11:50:53.500Z,9.13
2022-11-02T11:53:22.130Z,9.00
2022-11-02T11:55:52.815Z,7.57
2022-11-02T11:58:34.885Z,8.50
2022-11-02T12:01:15.105Z,7.43
2022-11-02T12:03:52.214Z,6.53
2022-11-02T12:06:21.656Z,8.80
2022-11-02T12:08:54.692Z,6.78
2022-11-02T12:11:23.878Z,7.68
2022-11-02T12:14:15.786Z,8.43
2022-11-02T12:16:59.778Z,5.15
2022-11-02T12:19:35.516Z,10.25
2022-11-02T12:22:23.715Z,5.72
2022-11-02T12:24:52.986Z,11.55
2022-11-02T12:27:30.317Z,7.18
2022-11-02T12:30:15.660Z,7.10
2022-11-02T12:33:03.944Z,8.13
2022-11-02T12:35:49.186Z,9.30
2022-11-02T12:38:33.860Z,9.68
2022-11-02T12:41:11.987Z,8.52
2022-11-02T12:43:42.818Z,10.50
2022-11-02T12:46:30.010Z,9.05
2022-11-02T12:49:07.873Z,7.45
2022-11-02T12:51:38.269Z,8.25
2022-11-02T12:54:10.079Z,8.90
2022-11-02T12:56:44.192Z,9.95
2022-11-02T12:59:14.644Z,8.23
2022-11-02T13:01:42.146Z,9.48
2022-11-02T13:04:18.472Z,7.22
2022-11-02T13:06:46.663Z,8.13
2022-11-02T13:09:21.724Z,10.50
2022-11-02T13:11:59.118Z,8.55
2022-11-02T13:14:29.374Z,9.98
2022-11-02T13:17:01.405Z,10.82
2022-11-02T13:19:48.649Z,6.95
2022-11-02T13:22:16.638Z,11.43
2022-11-02T13:24:45.224Z,8.02
2022-11-02T13:27:35.913Z,10.02
2022-11-02T13:30:05.070Z,16.45
2022-11-02T13:32:50.139Z,9.68
2022-11-02T13:35:18.889Z,11.38
2022-11-02T13:37:46.891Z,11.80
2022-11-02T13:40:16.736Z,17.52
2022-11-02T13:43:01.009Z,14.30
2022-11-02T13:45:27.350Z,22.35
2022-11-02T13:48:06.283Z,12.63
2022-11-02T13:50:34.170Z,13.20
2022-11-02T13:53:03.063Z,13.57
2022-11-02T13:55:45.541Z,7.53
2022-11-02T13:58:21.460Z,10.15
2022-11-02T14:00:47.711Z,10.63
2022-11-02T14:03:20.325Z,14.13
2022-11-02T14:05:52.857Z,13.75
2022-11-02T14:08:22.519Z,12.02
2022-11-02T14:11:03.600Z,8.10
2022-11-02T14:14:08.719Z,9.18
2022-11-02T14:16:44.930Z,10.68
2022-11-02T14:19:21.221Z,10.40
2022-11-02T14:21:50.602Z,12.30
2022-11-02T14:24:32.262Z,8.40
2022-11-02T14:26:59.216Z,10.38
2022-11-02T14:31:55.997Z,11.50
2022-11-02T14:34:30.424Z,12.40
2022-11-02T14:36:56.668Z,10.77
2022-11-02T14:39:28.967Z,7.85
2022-11-02T14:42:01.014Z,15.35
2022-11-02T14:44:33.491Z,7.28
2022-11-02T14:47:11.374Z,8.25
2022-11-02T14:49:47.325Z,11.75
2022-11-02T14:52:14.343Z,13.98
2022-11-02T14:54:54.797Z,15.55
2022-11-02T14:57:27.974Z,9.52
2022-11-02T14:59:56.566Z,14.98
2022-11-02T15:02:32.287Z,18.40
2022-11-02T15:05:00.163Z,17.63
2022-11-02T15:07:33.013Z,13.60
2022-11-02T15:10:00.457Z,10.07
2022-11-02T15:12:28.700Z,11.88
2022-11-02T15:14:56.372Z,11.50
2022-11-02T15:17:24.107Z,14.13
2022-11-02T15:19:53.447Z,10.93
2022-11-02T15:22:31.689Z,9.45
2022-11-02T15:25:00.050Z,17.05
2022-11-02T15:27:26.562Z,10.02
2022-11-02T15:29:52.977Z,9.50
2022-11-02T15:32:23.012Z,15.07
2022-11-02T15:34:50.780Z,16.00
2022-11-02T15:37:18.934Z,14.18
2022-11-02T15:39:55.356Z,10.23
2022-11-02T15:42:40.050Z,11.50
2022-11-02T15:45:34.146Z,10.88
2022-11-02T15:48:40.779Z,19.30
2022-11-02T15:53:46.506Z,10.90
2022-11-02T15:56:12.715Z,15.75
2022-11-02T15:58:57.522Z,9.20
2022-11-02T16:01:25.020Z,6.97
2022-11-02T16:03:58.247Z,12.80
2022-11-02T16:06:26.242Z,7.97
2022-11-02T16:08:52.464Z,16.08
2022-11-02T16:11:19.043Z,19.73
2022-11-02T16:14:03.516Z,14.95
2022-11-02T16:16:35.706Z,8.93
2022-11-02T16:19:02.377Z,13.68
2022-11-02T16:21:28.942Z,12.90
2022-11-02T16:23:56.800Z,21.45
2022-11-02T16:26:29.125Z,15.73
2022-11-02T16:28:59.414Z,13.25
2022-11-02T16:31:30.935Z,7.88
2022-11-02T16:33:57.310Z,20.42
2022-11-02T16:36:25.651Z,19.88
2022-11-02T16:38:58.804Z,20.40
2022-11-02T16:41:29.711Z,23.48
2022-11-02T16:43:56.810Z,19.02
2022-11-02T16:46:30.822Z,25.65
2022-11-02T16:49:02.067Z,19.48
2022-11-02T16:51:28.637Z,15.75
2022-11-02T16:53:54.932Z,19.33
2022-11-02T16:56:28.854Z,25.67
2022-11-02T16:59:00.310Z,30.48
2022-11-02T17:01:27.851Z,14.80
2022-11-02T17:03:54.360Z,31.98
2022-11-02T17:06:21.100Z,31.08
2022-11-02T17:08:52.223Z,16.20
2022-11-02T17:11:18.526Z,18.58
2022-11-02T17:13:53.291Z,18.83
2022-11-02T17:16:19.698Z,13.65
2022-11-02T17:18:45.984Z,12.57
2022-11-02T17:21:12.230Z,12.98
2022-11-02T17:23:39.628Z,14.35
2022-11-02T17:26:24.787Z,17.52
2022-11-02T17:28:52.127Z,14.15
2022-11-02T17:31:19.739Z,16.08
2022-11-02T17:33:46.379Z,27.63
2022-11-02T17:36:12.943Z,54.60
2022-11-02T17:38:39.768Z,12.25
2022-11-02T17:41:46.272Z,12.93
2022-11-02T17:44:16.263Z,27.10
2022-11-02T17:46:45.679Z,31.55
2022-11-02T17:49:12.549Z,15.90
2022-11-02T17:51:39.261Z,15.65
2022-11-02T17:54:05.652Z,12.98
2022-11-02T17:56:31.917Z,14.05
2022-11-02T17:58:58.357Z,21.15
2022-11-02T18:01:25.117Z,11.85
2022-11-02T18:06:17.684Z,13.05
2022-11-02T18:09:02.805Z,15.77
2022-11-02T18:11:29.230Z,21.88
2022-11-02T18:13:55.459Z,18.52
2022-11-02T18:16:21.927Z,13.27
2022-11-02T18:18:48.161Z,18.20
2022-11-02T18:21:14.395Z,15.68
2022-11-02T18:23:41.237Z,11.85
2022-11-02T18:26:09.295Z,12.75
2022-11-02T18:28:35.550Z,14.48
2022-11-02T18:31:01.929Z,11.13
2022-11-02T18:33:28.173Z,18.17
2022-11-02T18:36:01.121Z,36.97
2022-11-02T18:38:27.363Z,35.75
2022-11-02T18:40:53.591Z,19.33
2022-11-02T18:43:19.865Z,27.88
2022-11-02T18:45:46.277Z,18.23
2022-11-02T18:48:12.535Z,15.82
2022-11-02T18:50:38.768Z,19.58
2022-11-02T18:53:04.984Z,136.02
2022-11-02T18:55:31.535Z,81.07
2022-11-02T18:57:57.808Z,51.90
2022-11-02T19:00:24.076Z,36.25
2022-11-02T19:02:50.316Z,18.20
2022-11-02T19:05:34.898Z,22.80
2022-11-02T19:08:19.632Z,19.55
2022-11-02T19:10:47.268Z,11.32
2022-11-02T19:13:13.630Z,14.05
2022-11-02T19:15:42.687Z,20.30
2022-11-02T19:18:09.797Z,25.15
2022-11-02T19:20:36.051Z,23.15
2022-11-02T19:23:02.295Z,15.13
2022-11-02T19:25:28.565Z,28.35
2022-11-02T19:27:54.884Z,20.08
2022-11-02T19:30:22.621Z,19.08
2022-11-02T19:32:48.993Z,18.23
2022-11-02T19:35:15.234Z,17.20
2022-11-02T19:37:41.467Z,22.58
2022-11-02T19:40:08.045Z,13.05
2022-11-02T19:42:34.448Z,17.27
2022-11-02T19:45:00.722Z,22.38
2022-11-02T19:47:27.636Z,15.43
2022-11-02T19:49:53.934Z,21.73
2022-11-02T19:52:20.206Z,18.92
2022-11-02T19:54:46.502Z,22.52
2022-11-02T19:57:12.764Z,20.17
2022-11-02T19:59:39.200Z,22.35
2022-11-02T20:02:05.494Z,31.95
2022-11-02T20:04:35.489Z,37.13
2022-11-02T20:09:35.590Z,23.02
2022-11-02T20:12:04.125Z,17.33
2022-11-02T20:14:30.844Z,18.02
2022-11-02T20:17:10.793Z,22.60
2022-11-02T20:19:43.479Z,17.70
2022-11-02T20:22:09.933Z,18.98
2022-11-02T20:24:36.239Z,13.23
2022-11-02T20:27:04.429Z,24.63
2022-11-02T20:29:30.782Z,14.77
2022-11-02T20:31:57.082Z,20.35
2022-11-02T20:34:23.428Z,12.48
2022-11-02T20:36:50.047Z,18.73
2022-11-02T20:39:16.522Z,15.02
2022-11-02T20:41:42.835Z,13.60
2022-11-02T20:44:09.113Z,14.98
2022-11-02T20:46:38.238Z,22.13
2022-11-02T20:49:22.021Z,25.05
2022-11-02T20:51:53.667Z,48.17
2022-11-02T20:54:20.784Z,35.70
2022-11-02T20:56:47.605Z,45.72
2022-11-02T20:59:14.040Z,38.70
2022-11-02T21:01:40.437Z,26.38
2022-11-02T21:04:06.928Z,23.88
2022-11-02T21:06:33.290Z,28.20
2022-11-02T21:09:00.609Z,21.90
2022-11-02T21:11:45.819Z,18.48
2022-11-02T21:14:12.151Z,46.15
2022-11-02T21:16:38.454Z,34.35
2022-11-02T21:19:05.275Z,34.67
2022-11-02T21:21:31.566Z,44.42
2022-11-02T21:23:58.177Z,80.80
2022-11-02T21:26:24.514Z,55.50
2022-11-02T21:28:50.766Z,37.25
2022-11-02T21:31:19.248Z,25.67
2022-11-02T21:33:46.496Z,32.03
2022-11-02T21:36:13.165Z,34.17
2022-11-02T21:38:39.818Z,24.52
2022-11-02T21:41:07.616Z,17.67
2022-11-02T21:43:37.556Z,33.42
2022-11-02T21:46:05.624Z,39.50
2022-11-02T21:48:33.222Z,23.10
2022-11-02T21:50:59.724Z,27.23
2022-11-02T21:53:26.052Z,21.35
2022-11-02T21:55:59.394Z,17.10
2022-11-02T21:58:25.671Z,26.52
2022-11-02T22:01:26.911Z,25.50
2022-11-02T22:03:53.330Z,13.68
2022-11-02T22:06:20.880Z,10.85
2022-11-02T22:08:47.465Z,19.75
2022-11-02T22:11:21.392Z,15.13
2022-11-02T22:13:51.430Z,13.20
2022-11-02T22:16:25.126Z,18.38
2022-11-02T22:18:52.734Z,25.77
2022-11-02T22:21:19.608Z,17.88
2022-11-02T22:23:46.469Z,21.08
2022-11-02T22:26:14.089Z,19.67
2022-11-02T22:28:41.125Z,19.33
2022-11-02T22:33:34.120Z,19.58
2022-11-02T22:36:02.774Z,27.45
2022-11-02T22:38:47.678Z,24.35
2022-11-02T22:41:20.726Z,21.20
2022-11-02T22:43:47.616Z,20.90
2022-11-02T22:46:14.758Z,17.25
2022-11-02T22:48:41.234Z,25.42
2022-11-02T22:51:08.283Z,21.67
2022-11-02T22:53:34.642Z,21.80
2022-11-02T22:56:02.276Z,18.30
2022-11-02T22:58:29.313Z,20.33
2022-11-02T23:03:22.245Z,17.98
2022-11-02T23:05:48.643Z,16.05
2022-11-02T23:08:15.091Z,15.48
2022-11-02T23:11:00.256Z,20.38
2022-11-02T23:13:26.622Z,17.92
2022-11-02T23:15:52.880Z,16.30
2022-11-02T23:18:39.105Z,22.30
2022-11-02T23:21:05.415Z,18.08
2022-11-02T23:23:50.572Z,17.48
2022-11-02T23:26:16.895Z,20.60
2022-11-02T23:29:01.913Z,14.60
2022-11-02T23:31:46.687Z,18.08
2022-11-02T23:34:12.922Z,12.93
2022-11-02T23:36:39.191Z,9.73
2022-11-02T23:39:24.192Z,15.55
2022-11-02T23:41:50.442Z,21.73
2022-11-02T23:44:18.874Z,19.05
2022-11-02T23:46:46.251Z,26.48
2022-11-02T23:49:12.907Z,19.95
2022-11-02T23:51:57.998Z,20.92
2022-11-02T23:54:56.501Z,25.20
2022-11-02T23:57:22.737Z,15.57
2022-11-02T23:59:49.611Z,17.67
